Thursday, November 23, 2017, 4:35 AM EST
Back to Local

K1P1, Plymouth, Plymouth Municipal Airport

Location: Plymouth, NH, United States Lat: 43.779
Local Time: 4:35 AM EST ( 9:35 GMT) Lon: -71.754
Time Zone: US/Eastern Elev: 505 ft

Show me the last for .
Show Decoded

2017-11-23 04:14 METAR K1P1 230915Z AUTO 31007KT 10SM OVC028 M03/M08 A3000 RMK AO2 T10281080 =
2017-11-23 03:55 METAR K1P1 230855Z AUTO 31006G15KT 10SM OVC026 M03/M08 A2999 RMK AO2 T10261080 =
2017-11-23 03:35 METAR K1P1 230835Z AUTO 31010KT 10SM BKN026 M02/M08 A2999 RMK AO2 T10251078 =
2017-11-23 03:15 METAR K1P1 230815Z AUTO 30011G17KT 10SM OVC026 M02/M07 A2999 RMK AO2 T10221073 =
2017-11-23 02:55 METAR K1P1 230755Z AUTO 31010G20KT 10SM OVC026 M02/M07 A2999 RMK AO2 T10181067 =
2017-11-23 02:35 METAR K1P1 230735Z AUTO 30009G14KT 10SM OVC026 M01/M06 A2999 RMK AO2 T10151063 =
2017-11-23 02:15 METAR K1P1 230715Z AUTO 30008KT 10SM OVC028 M01/M06 A2998 RMK AO2 T10121065 =
2017-11-23 01:55 METAR K1P1 230655Z AUTO 29012G17KT 10SM OVC028 M01/M06 A2997 RMK AO2 T10101063 =
2017-11-23 01:35 METAR K1P1 230635Z AUTO 31011G17KT 10SM OVC028 M01/M06 A2996 RMK AO2 T10071062 =
2017-11-23 01:15 METAR K1P1 230615Z AUTO 32009G18KT 300V360 10SM OVC028 00/M06 A2996 RMK AO2
                 T10031062 =
2017-11-23 00:55 METAR K1P1 230555Z AUTO 32013G20KT 10SM OVC032 00/M06 A2995 RMK AO2 T00001064
                 10030 20000 =
2017-11-23 00:35 METAR K1P1 230535Z AUTO 32013G20KT 10SM OVC032 00/M06 A2995 RMK AO2 T00001062 =
2017-11-23 00:15 METAR K1P1 230515Z AUTO 32014G21KT 10SM OVC032 00/M06 A2995 RMK AO2 T00011060 =
2017-11-22 23:55 METAR K1P1 230455Z AUTO 01008G21KT 340V070 10SM OVC036 01/M06 A2994 RMK AO2
                 T00051064 =
2017-11-22 23:33 METAR K1P1 230435Z AUTO 31007G15KT 10SM SCT030 BKN036 OVC042 01/M05 A2995 RMK
                 AO2 T00061055 =
2017-11-22 23:15 METAR K1P1 230415Z AUTO 34006G19KT 10SM SCT027 BKN034 OVC042 01/M04 A2993 RMK
                 AO2 T00061045 =
2017-11-22 22:55 METAR K1P1 230355Z AUTO 33010G14KT 10SM BKN031 OVC044 01/M04 A2992 RMK AO2
                 T00081043 400321050 =
2017-11-22 22:35 METAR K1P1 230335Z AUTO 32006KT 10SM BKN029 BKN034 OVC044 01/M04 A2992 RMK AO2
                 T00101040 =
2017-11-22 22:15 METAR K1P1 230315Z AUTO 31009G18KT 270V350 10SM BKN026 OVC032 01/M04 A2992 RMK
                 AO2 T00111039 =
2017-11-22 21:55 METAR K1P1 230255Z AUTO 32014G21KT 10SM OVC024 01/M03 A2991 RMK AO2 T00111035 =
2017-11-22 21:31 METAR K1P1 230235Z AUTO 31014G20KT 260V320 10SM OVC026 01/M03 A2991 RMK AO2
                 T00131033 =
2017-11-22 21:15 METAR K1P1 230215Z AUTO 32009G19KT 10SM BKN028 BKN035 OVC050 02/M03 A2991 RMK
                 AO2 T00151035 =
2017-11-22 20:55 METAR K1P1 230155Z AUTO 32009G17KT 290V350 10SM SCT031 SCT043 OVC050 02/M04
                 A2991 RMK AO2 T00171037 =
2017-11-22 20:35 METAR K1P1 230135Z AUTO 31016G24KT 10SM SCT030 BKN041 OVC050 02/M03 A2991 RMK
                 AO2 T00211035 =
2017-11-22 20:15 METAR K1P1 230115Z AUTO 32009G16KT 10SM SCT029 OVC037 02/M03 A2991 RMK AO2
                 T00241029 =
2017-11-22 19:55 METAR K1P1 230055Z AUTO 32012G19KT 10SM BKN037 BKN043 OVC048 03/M03 A2991 RMK
                 AO2 T00261031 =
2017-11-22 19:35 METAR K1P1 230035Z AUTO 30012G20KT 10SM SCT035 OVC046 03/M03 A2991 RMK AO2
                 T00271029 =
2017-11-22 19:15 METAR K1P1 230015Z AUTO 31011G21KT 10SM BKN033 OVC039 03/M03 A2990 RMK AO2
                 T00291026 =
2017-11-22 18:55 METAR K1P1 222355Z AUTO 31007G16KT 10SM BKN030 OVC036 03/M02 A2990 RMK AO2
                 T00301018 10032 20000 =
2017-11-22 18:35 METAR K1P1 222335Z AUTO 32013G19KT 10SM OVC032 03/M02 A2989 RMK AO2 T00311023 =
2017-11-22 18:15 METAR K1P1 222315Z AUTO 32015G22KT 10SM OVC032 03/M02 A2989 RMK AO2 T00321023 =
2017-11-22 17:55 METAR K1P1 222255Z AUTO 30011G15KT 10SM SCT034 OVC050 03/M02 A2989 RMK AO2
                 T00301020 =
2017-11-22 17:32 METAR K1P1 222235Z AUTO 32009KT 280V350 10SM OVC050 03/M01 A2988 RMK AO2
                 T00261009 =
2017-11-22 17:15 METAR K1P1 222215Z AUTO 30008KT 10SM OVC048 03/00 A2988 RMK AO2 T00261004 =
2017-11-22 16:55 METAR K1P1 222155Z AUTO 30006G15KT 10SM OVC048 03/00 A2987 RMK AO2 T00251002 =
2017-11-22 16:35 METAR K1P1 222135Z AUTO 30008KT 10SM OVC048 03/00 A2987 RMK AO2 T00281001 =
2017-11-22 16:15 METAR K1P1 222115Z AUTO 30007G15KT 10SM OVC048 03/00 A2987 RMK AO2 T00290000 =
2017-11-22 15:55 METAR K1P1 222055Z AUTO 28012G16KT 10SM SCT038 OVC048 03/01 A2986 RMK AO2
                 T00280006 =
2017-11-22 15:32 METAR K1P1 222035Z AUTO 28011G15KT 10SM BKN046 OVC060 03/01 A2986 RMK AO2
                 T00280010 =
2017-11-22 15:15 METAR K1P1 222015Z AUTO 27010G19KT 10SM BKN044 OVC050 03/02 A2986 RMK AO2
                 T00300015 =
2017-11-22 14:55 METAR K1P1 221955Z AUTO 27009G15KT 10SM -DZ SCT043 OVC050 03/02 A2984 RMK AO2
                 T00310021 =
2017-11-22 14:35 METAR K1P1 221935Z AUTO 29007KT 5SM UP BKN037 OVC046 02/02 A2983 RMK AO2
                 T00230020 =
2017-11-22 14:15 METAR K1P1 221915Z AUTO 06004KT 5SM UP BKN035 OVC060 01/00 A2983 RMK AO2
                 T00050000 =
2017-11-22 13:55 METAR K1P1 221855Z AUTO 00000KT 7SM SCT035 SCT047 OVC060 00/00 A2984 RMK AO2
                 T00020000 =
2017-11-22 13:35 METAR K1P1 221835Z AUTO 00000KT 5SM UP OVC047 00/00 A2983 RMK AO2 T00010000 =
2017-11-22 13:15 METAR K1P1 221815Z AUTO 00000KT 7SM UP OVC047 00/00 A2984 RMK AO2 T00001002 =
2017-11-22 12:55 METAR K1P1 221755Z AUTO 00000KT 7SM UP BKN039 OVC047 00/00 A2984 RMK AO2
                 T00001005 10000 21042 =
2017-11-22 12:35 METAR K1P1 221735Z AUTO 00000KT 5SM UP BKN039 OVC049 00/00 A2986 RMK AO2
                 T00001005 =
2017-11-22 12:15 METAR K1P1 221715Z AUTO 00000KT 10SM UP BKN041 OVC049 00/M01 A2989 RMK AO2
                 T10021007 =
2017-11-22 11:55 METAR K1P1 221655Z AUTO 00000KT 7SM UP BKN041 OVC049 00/M01 A2989 RMK AO2
                 T10041009 =
2017-11-22 11:35 METAR K1P1 221635Z AUTO 00000KT 10SM BKN046 OVC055 M01/M01 A2990 RMK AO2
                 T10061011 =
2017-11-22 11:14 METAR K1P1 221615Z AUTO 00000KT 10SM SCT042 SCT048 OVC055 M01/M01 A2990 RMK AO2
                 T10081013 =
2017-11-22 10:55 METAR K1P1 221555Z AUTO 00000KT 10SM BKN055 OVC065 M01/M02 A2991 RMK AO2
                 T10111016 =
2017-11-22 10:32 METAR K1P1 221535Z AUTO 00000KT 10SM BKN065 OVC070 M01/M02 A2992 RMK AO2
                 T10151020 =
2017-11-22 10:15 METAR K1P1 221515Z AUTO 00000KT 10SM OVC065 M02/M02 A2991 RMK AO2 T10161020 =
2017-11-22 09:55 METAR K1P1 221455Z AUTO 00000KT 10SM BKN065 OVC090 M02/M02 A2993 RMK AO2
                 T10171021 =
2017-11-22 09:33 METAR K1P1 221435Z AUTO 00000KT 7SM BKN090 BKN120 M02/M02 A2993 RMK AO2
                 T10191022 =
2017-11-22 09:15 METAR K1P1 221415Z AUTO 00000KT 10SM CLR M02/M02 A2995 RMK AO2 T10221025 =
2017-11-22 08:55 METAR K1P1 221355Z AUTO 00000KT 7SM CLR M03/M03 A2995 RMK AO2 T10261029 =
2017-11-22 08:35 METAR K1P1 221335Z AUTO 00000KT 5SM BR CLR M03/M03 A2994 RMK AO2 T10301032 =
2017-11-22 08:15 METAR K1P1 221315Z AUTO 00000KT 10SM CLR M03/M03 A2994 RMK AO2 T10311035 =
2017-11-22 07:55 METAR K1P1 221255Z AUTO 00000KT 10SM SCT100 M04/M04 A2994 RMK AO2 T10361040 =
2017-11-22 07:32 METAR K1P1 221235Z AUTO 00000KT 10SM SCT100 M04/M04 A2995 RMK AO2 T10401043 =
2017-11-22 07:15 METAR K1P1 221215Z AUTO 00000KT 10SM CLR M04/M04 A2995 RMK AO2 T10401044 =
2017-11-22 06:55 METAR K1P1 221155Z AUTO 00000KT 10SM CLR M04/M05 A2994 RMK AO2 T10431046 11035
                 21050 =
2017-11-22 06:35 METAR K1P1 221135Z AUTO 00000KT 10SM CLR M04/M05 A2996 RMK AO2 T10451050 =
2017-11-22 06:15 METAR K1P1 221115Z AUTO 00000KT 10SM CLR M05/M05 A2996 RMK AO2 T10471051 =
2017-11-22 05:55 METAR K1P1 221055Z AUTO 00000KT 10SM CLR M04/M05 A2996 RMK AO2 T10451050 =
2017-11-22 05:35 METAR K1P1 221035Z AUTO 00000KT 10SM CLR M05/M05 A2997 RMK AO2 T10501055 =
2017-11-22 05:15 METAR K1P1 221015Z AUTO 00000KT 10SM CLR M05/M05 A2999 RMK AO2 T10471050 =
2017-11-22 04:55 METAR K1P1 220955Z AUTO 00000KT 10SM CLR M04/M05 A2999 RMK AO2 T10451049 =

Support USWX by starting your Amazon purchase here.